Decoded Metar for LTCR (MARDIN in TURKEY) (IATA:) | Meteo·Mobile Aviation Weather
aviador You're here:

LTCR Decoded Metar

MARDIN in TURKEY
Report Time2019-07-22 00:50:00
UTC Time2019-07-22 02:00:43
Flight Rules Old
Wind310° at 02 kt
W.Decomp.*RWY 03: 0.2 kt HW 2 kt LCW
Visibility9999 m
Phenomena:N/A
Clouds:N/A
Expected CloudBase > 4,000 ft AGL from Temp-Dew spread
CeilingNone
Temp24°C (ISA +12)
Dew Point14°C (54% RH)
QNH1004 hPa
Density Alt3,688 ft
Elevation1,729 ft
Report Wrong Elevation
Raw Report
METAR LTCR 220050Z 31002KT CAVOK 24/14 Q1004=

Extra information for LTCR:More info

Metar Taf Metar & Taf Last 4 Metars F.Rules Stats Wind Profile Meteogram Temp Stats Airport Information Weather charts Add Link Nearby VenuesMetar ALERT Operation Metar Decoded Social comments